Hlavní strana
METAR-TAF:

METAR-TAF

Letiště :

Letiště London Heathrow

Londýn-Heathrow, Anglie

zeměpisná šířka: 51-29N, zeměpisná délka: 000-27W, výška: 24 m

Aktuální stav počasí

Zpráva byla vytvořena před 30 minutami, v 22:20 UTC
Východoseverovýchodní vítr 3 kt
Teplota 8°C
Vlhkost vzduchu 61%
Tlak 1035 hPa
Viditelnost 10 km a více

METAR: EGLL 252220Z AUTO 07003KT 9999 NCD 08/01 Q1035 NOSIG

Čas: 22:50 (22:50 UTC)

Předpověď počasí

Zpráva byla vytvořena před 5 hodinami a 52 minutami, v 16:58 UTC
Předpověď platná od 25 v 18 UTC do 26 v 24 UTC
Severní vítr 10 kt
Viditelnost 10 km a více
Skoro jasno ve výšce 4500 ft
Změna
od 25 v 19 UTC do 25 v 22 UTC
vítr z různých směrů 3 kt
Pravděpodobnost 40%
od 26 v 01 UTC do 26 v 09 UTC
Viditelnost: 8000 m
Změna
od 26 v 08 UTC do 26 v 11 UTC
Severoseverozápadní vítr 10 kt

TAF: EGLL 251658Z 2518/2624 36010KT 9999 FEW045 BECMG 2519/2522 VRB03KT PROB40 2601/2609 8000 BECMG 2608/2611 33010KT

Stav a předpovědi počasí z více než 4 000 letišť (zprávy METAR a TAF).

Červené a žluté tečky na mapě představují dostupné meteorologické stanice.

Když kurzor umístíte na tečku, zobrazí se název stanice.

Pak kliknutím zobrazíte stav a předpověď počasí.

Chcete-li změnit mapu, kliknutím na zelené tlačítko se znaménkem +mapu přiblížíte, kliknutím na zelené tlačítko se znaménkem – mapu oddálíte a kliknutím na zelené šipky přejdete na sousední mapy.


METAR-TAF: